createdAt,value
2019-02-24T00:00:42.134Z,9.70
2019-02-24T00:03:12.888Z,10.00
2019-02-24T00:05:42.885Z,9.60
2019-02-24T00:08:12.991Z,9.23
2019-02-24T00:10:42.959Z,11.53
2019-02-24T00:13:12.990Z,9.60
2019-02-24T00:15:43.082Z,10.17
2019-02-24T00:18:12.940Z,9.60
2019-02-24T00:20:43.029Z,9.63
2019-02-24T00:23:12.835Z,9.97
2019-02-24T00:25:42.833Z,8.83
2019-02-24T00:28:12.861Z,10.17
2019-02-24T00:30:43.029Z,8.00
2019-02-24T00:33:12.753Z,8.47
2019-02-24T00:35:43.006Z,9.63
2019-02-24T00:38:12.964Z,9.90
2019-02-24T00:40:43.256Z,8.77
2019-02-24T00:43:13.441Z,10.20
2019-02-24T00:45:43.897Z,7.93
2019-02-24T00:48:13.697Z,8.37
2019-02-24T00:50:43.555Z,9.23
2019-02-24T00:53:13.459Z,9.37
2019-02-24T00:55:46.517Z,9.93
2019-02-24T00:58:17.858Z,9.27
2019-02-24T01:00:47.797Z,9.40
2019-02-24T01:03:18.711Z,10.33
2019-02-24T01:05:48.695Z,9.17
2019-02-24T01:08:18.424Z,9.23
2019-02-24T01:10:48.249Z,8.63
2019-02-24T01:13:18.211Z,11.00
2019-02-24T01:15:48.104Z,7.93
2019-02-24T01:18:17.895Z,8.00
2019-02-24T01:20:47.771Z,8.70
2019-02-24T01:23:17.509Z,9.43
2019-02-24T01:25:47.261Z,9.10
2019-02-24T01:28:24.854Z,9.87
2019-02-24T01:30:48.795Z,10.27
2019-02-24T01:33:18.499Z,11.37
2019-02-24T01:35:48.316Z,11.90
2019-02-24T01:38:19.215Z,10.93
2019-02-24T01:40:49.051Z,11.20
2019-02-24T01:43:18.877Z,11.53
2019-02-24T01:45:49.112Z,11.68
2019-02-24T01:48:18.960Z,12.80
2019-02-24T01:50:49.821Z,9.97
2019-02-24T01:53:19.560Z,10.43
2019-02-24T01:55:49.530Z,10.17
2019-02-24T01:58:19.414Z,10.23
2019-02-24T02:00:49.351Z,11.50
2019-02-24T02:03:19.199Z,7.40
2019-02-24T02:05:48.921Z,8.87
2019-02-24T02:08:18.799Z,9.97
2019-02-24T02:10:48.472Z,8.03
2019-02-24T02:13:18.624Z,9.25
2019-02-24T02:15:48.425Z,8.77
2019-02-24T02:18:18.156Z,8.73
2019-02-24T02:20:47.962Z,8.47
2019-02-24T02:23:17.927Z,9.97
2019-02-24T02:25:47.746Z,8.33
2019-02-24T02:28:17.652Z,11.47
2019-02-24T02:30:47.420Z,9.70
2019-02-24T02:33:17.224Z,8.40
2019-02-24T02:35:47.157Z,9.77
2019-02-24T02:38:16.940Z,7.47
2019-02-24T02:40:46.715Z,7.22
2019-02-24T02:43:16.531Z,8.03
2019-02-24T02:45:46.232Z,8.63
2019-02-24T02:48:16.967Z,8.93
2019-02-24T02:50:46.682Z,7.40
2019-02-24T02:53:16.515Z,9.40
2019-02-24T02:55:47.121Z,9.88
2019-02-24T02:58:16.893Z,8.93
2019-02-24T03:00:46.707Z,9.20
2019-02-24T03:03:16.541Z,7.27
2019-02-24T03:06:00.385Z,8.10
2019-02-24T03:08:46.297Z,9.47
2019-02-24T03:11:16.571Z,9.87
2019-02-24T03:13:46.277Z,8.30
2019-02-24T03:16:20.046Z,7.92
2019-02-24T03:18:49.953Z,8.80
2019-02-24T03:21:19.675Z,8.13
2019-02-24T03:23:49.516Z,7.50
2019-02-24T03:26:19.409Z,12.45
2019-02-24T03:28:49.193Z,9.07
2019-02-24T03:31:19.142Z,8.57
2019-02-24T03:33:49.000Z,8.07
2019-02-24T03:36:18.748Z,10.83
2019-02-24T03:38:48.948Z,7.83
2019-02-24T03:41:18.696Z,8.43
2019-02-24T03:43:52.634Z,7.30
2019-02-24T03:46:22.396Z,8.60
2019-02-24T03:48:52.425Z,11.97
2019-02-24T03:51:22.286Z,8.77
2019-02-24T03:53:52.272Z,8.80
2019-02-24T03:56:22.355Z,10.60
2019-02-24T03:58:52.246Z,10.13
2019-02-24T04:01:22.129Z,7.60
2019-02-24T04:03:52.054Z,9.83
2019-02-24T04:06:21.929Z,8.43
2019-02-24T04:08:52.681Z,8.60
2019-02-24T04:11:22.504Z,10.47
2019-02-24T04:13:52.391Z,10.50
2019-02-24T04:16:22.222Z,8.40
2019-02-24T04:18:52.059Z,9.50
2019-02-24T04:21:22.066Z,8.37
2019-02-24T04:23:51.804Z,9.83
2019-02-24T04:26:22.690Z,8.80
2019-02-24T04:28:52.561Z,9.30
2019-02-24T04:31:22.333Z,8.67
2019-02-24T04:33:52.089Z,9.00
2019-02-24T04:36:22.629Z,7.62
2019-02-24T04:38:52.573Z,6.70
2019-02-24T04:41:22.617Z,9.97
2019-02-24T04:43:52.436Z,9.40
2019-02-24T04:46:22.438Z,9.43
2019-02-24T04:48:52.265Z,9.83
2019-02-24T04:51:21.949Z,11.20
2019-02-24T04:53:51.769Z,9.67
2019-02-24T04:56:21.614Z,10.53
2019-02-24T04:58:51.480Z,11.43
2019-02-24T05:01:21.272Z,11.03
2019-02-24T05:03:50.997Z,13.27
2019-02-24T05:06:20.868Z,11.03
2019-02-24T05:08:50.625Z,15.53
2019-02-24T05:11:20.393Z,10.90
2019-02-24T05:13:50.107Z,11.07
2019-02-24T05:16:20.921Z,12.83
2019-02-24T05:18:51.857Z,9.43
2019-02-24T05:21:22.515Z,12.43
2019-02-24T05:23:52.604Z,8.10
2019-02-24T05:26:22.347Z,9.75
2019-02-24T05:28:52.128Z,10.53
2019-02-24T05:31:21.869Z,10.80
2019-02-24T05:33:51.640Z,9.93
2019-02-24T05:36:22.205Z,9.53
2019-02-24T05:38:51.943Z,11.20
2019-02-24T05:41:22.840Z,10.87
2019-02-24T05:43:52.486Z,9.90
2019-02-24T05:46:22.320Z,9.03
2019-02-24T05:48:52.462Z,9.30
2019-02-24T05:51:22.380Z,9.37
2019-02-24T05:53:52.230Z,8.37
2019-02-24T05:56:21.987Z,11.40
2019-02-24T05:58:51.820Z,9.83
2019-02-24T06:01:21.593Z,10.17
2019-02-24T06:03:51.440Z,10.10
2019-02-24T06:06:21.260Z,7.13
2019-02-24T06:08:52.079Z,10.17
2019-02-24T06:11:21.980Z,7.57
2019-02-24T06:13:52.247Z,7.47
2019-02-24T06:16:22.065Z,7.70
2019-02-24T06:18:52.013Z,8.70
2019-02-24T06:21:21.686Z,9.10
2019-02-24T06:23:51.466Z,9.30
2019-02-24T06:26:21.256Z,11.93
2019-02-24T06:28:51.049Z,9.83
2019-02-24T06:31:20.765Z,11.57
2019-02-24T06:33:50.492Z,8.53
2019-02-24T06:36:21.185Z,8.03
2019-02-24T06:38:50.907Z,10.65
2019-02-24T06:41:20.604Z,11.40
2019-02-24T06:43:50.492Z,9.53
2019-02-24T06:46:20.845Z,9.57
2019-02-24T06:48:50.690Z,9.63
2019-02-24T06:51:20.464Z,8.67
2019-02-24T06:53:50.149Z,10.00
2019-02-24T06:56:19.910Z,8.67
2019-02-24T06:58:49.778Z,10.77
2019-02-24T07:01:19.655Z,8.33
2019-02-24T07:03:49.432Z,9.17
2019-02-24T07:06:19.188Z,9.00
2019-02-24T07:08:49.013Z,9.47
2019-02-24T07:11:18.806Z,6.73
2019-02-24T07:13:48.566Z,7.10
2019-02-24T07:16:18.312Z,7.83
2019-02-24T07:18:48.209Z,7.63
2019-02-24T07:21:18.124Z,8.57
2019-02-24T07:23:47.871Z,8.53
2019-02-24T07:26:17.609Z,6.87
2019-02-24T07:28:47.339Z,7.27
2019-02-24T07:31:17.114Z,8.77
2019-02-24T07:33:47.121Z,7.47
2019-02-24T07:36:17.043Z,7.85
2019-02-24T07:38:48.055Z,10.33
2019-02-24T07:41:18.105Z,9.63
2019-02-24T07:43:47.980Z,7.23
2019-02-24T07:46:20.352Z,8.43
2019-02-24T07:48:50.091Z,9.73
2019-02-24T07:51:20.885Z,10.30
2019-02-24T07:53:53.841Z,7.53
2019-02-24T07:56:23.652Z,5.70
2019-02-24T07:58:53.499Z,6.47
2019-02-24T08:01:23.274Z,4.83
2019-02-24T08:03:54.095Z,4.93
2019-02-24T08:06:25.593Z,4.60
2019-02-24T08:08:57.124Z,5.20
2019-02-24T08:11:26.951Z,7.80
2019-02-24T08:13:59.341Z,4.97
2019-02-24T08:16:37.022Z,4.53
2019-02-24T08:19:06.995Z,5.05
2019-02-24T08:21:36.752Z,5.60
2019-02-24T08:24:06.712Z,4.47
2019-02-24T08:26:36.566Z,4.20
2019-02-24T08:29:06.414Z,5.00
2019-02-24T08:31:36.159Z,4.53
2019-02-24T08:34:05.923Z,5.23
2019-02-24T08:36:35.757Z,6.12
2019-02-24T08:39:07.333Z,4.50
2019-02-24T08:41:37.283Z,4.10
2019-02-24T08:44:07.840Z,4.25
2019-02-24T08:46:37.638Z,4.50
2019-02-24T08:49:07.931Z,4.30
2019-02-24T08:51:37.743Z,5.33
2019-02-24T08:54:07.581Z,4.42
2019-02-24T08:56:37.372Z,4.63
2019-02-24T08:59:08.244Z,4.50
2019-02-24T09:01:38.020Z,4.05
2019-02-24T09:04:08.130Z,4.90
2019-02-24T09:06:37.965Z,5.97
2019-02-24T09:09:09.401Z,5.97
2019-02-24T09:11:39.233Z,6.60
2019-02-24T09:14:09.066Z,6.55
2019-02-24T09:16:39.926Z,6.53
2019-02-24T09:19:09.817Z,6.55
2019-02-24T09:21:39.759Z,6.47
2019-02-24T09:24:09.674Z,5.50
2019-02-24T09:26:39.929Z,5.03
2019-02-24T09:29:09.874Z,4.92
2019-02-24T09:31:40.194Z,4.97
2019-02-24T09:34:10.196Z,5.08
2019-02-24T09:36:40.223Z,4.65
2019-02-24T09:39:10.097Z,5.15
2019-02-24T09:41:39.909Z,4.62
2019-02-24T09:44:10.001Z,5.87
2019-02-24T09:46:40.227Z,5.28
2019-02-24T09:49:10.321Z,5.53
2019-02-24T09:51:41.183Z,5.17
2019-02-24T09:54:11.196Z,4.60
2019-02-24T09:56:41.338Z,4.33
2019-02-24T09:59:11.264Z,4.42
2019-02-24T10:01:41.031Z,4.70
2019-02-24T10:04:11.357Z,4.90
2019-02-24T10:06:41.313Z,4.17
2019-02-24T10:09:12.791Z,4.50
2019-02-24T10:11:42.544Z,4.17
2019-02-24T10:14:12.325Z,4.67
2019-02-24T10:16:43.823Z,5.20
2019-02-24T10:19:14.109Z,4.55
2019-02-24T10:21:43.977Z,3.90
2019-02-24T10:24:13.986Z,3.55
2019-02-24T10:26:43.917Z,3.27
2019-02-24T10:29:14.191Z,3.10
2019-02-24T10:31:43.932Z,4.37
2019-02-24T10:34:13.839Z,3.70
2019-02-24T10:36:43.660Z,3.87
2019-02-24T10:39:13.973Z,3.53
2019-02-24T10:41:43.792Z,4.97
2019-02-24T10:44:15.459Z,4.05
2019-02-24T10:46:47.062Z,3.83
2019-02-24T10:49:16.859Z,3.62
2019-02-24T10:51:48.261Z,5.37
2019-02-24T10:54:19.680Z,3.20
2019-02-24T10:56:49.544Z,3.12
2019-02-24T10:59:19.357Z,3.83
2019-02-24T11:01:49.133Z,2.57
2019-02-24T11:04:20.569Z,3.17
2019-02-24T11:06:50.531Z,2.10
2019-02-24T11:09:22.538Z,3.65
2019-02-24T11:11:52.387Z,2.70
2019-02-24T11:14:22.193Z,3.00
2019-02-24T11:16:51.925Z,3.90
2019-02-24T11:19:21.698Z,2.20
2019-02-24T11:21:51.539Z,2.73
2019-02-24T11:24:21.425Z,2.53
2019-02-24T11:26:51.367Z,2.17
2019-02-24T11:29:21.651Z,2.93
2019-02-24T11:31:51.654Z,2.42
2019-02-24T11:34:21.557Z,2.67
2019-02-24T11:36:51.292Z,3.03
2019-02-24T11:39:21.192Z,2.43
2019-02-24T11:41:51.733Z,1.90
2019-02-24T11:44:21.565Z,1.53
2019-02-24T11:46:51.484Z,2.73
2019-02-24T11:49:21.473Z,1.57
2019-02-24T11:51:51.372Z,2.20
2019-02-24T11:54:21.212Z,2.30
2019-02-24T11:56:51.127Z,2.20
2019-02-24T11:59:20.926Z,1.97
2019-02-24T12:01:51.943Z,1.83
2019-02-24T12:04:21.771Z,2.37
2019-02-24T12:06:51.746Z,2.33
2019-02-24T12:09:21.605Z,2.27
2019-02-24T12:11:53.240Z,3.03
2019-02-24T12:14:25.451Z,4.00
2019-02-24T12:16:55.396Z,1.83
2019-02-24T12:19:27.089Z,2.67
2019-02-24T12:21:57.039Z,1.67
2019-02-24T12:24:28.205Z,2.07
2019-02-24T12:26:58.083Z,1.63
2019-02-24T12:29:27.763Z,2.03
2019-02-24T12:31:57.610Z,1.80
2019-02-24T12:34:27.606Z,2.63
2019-02-24T12:36:58.424Z,2.72
2019-02-24T12:39:28.464Z,3.13
2019-02-24T12:41:58.218Z,2.47
2019-02-24T12:44:29.053Z,2.03
2019-02-24T12:47:00.463Z,2.35
2019-02-24T12:49:30.377Z,1.83
2019-02-24T12:52:00.776Z,2.58
2019-02-24T12:54:30.534Z,2.60
2019-02-24T12:57:00.364Z,2.67
2019-02-24T12:59:30.301Z,3.67
2019-02-24T13:02:05.665Z,3.20
2019-02-24T13:04:31.822Z,4.83
2019-02-24T13:07:01.693Z,3.33
2019-02-24T13:09:31.555Z,3.80
2019-02-24T13:12:01.461Z,3.83
2019-02-24T13:14:31.315Z,2.57
2019-02-24T13:17:01.098Z,3.93
2019-02-24T13:19:30.946Z,3.20
2019-02-24T13:22:02.975Z,3.70
2019-02-24T13:24:33.330Z,3.73
2019-02-24T13:27:03.298Z,3.90
2019-02-24T13:29:33.156Z,3.57
2019-02-24T13:32:03.208Z,3.43
2019-02-24T13:34:33.754Z,2.37
2019-02-24T13:37:03.706Z,3.03
2019-02-24T13:39:33.580Z,2.40
2019-02-24T13:42:03.527Z,3.00
2019-02-24T13:44:33.424Z,2.20
2019-02-24T13:47:03.252Z,2.70
2019-02-24T13:49:33.120Z,3.27
2019-02-24T13:52:02.852Z,4.22
2019-02-24T13:54:32.832Z,2.87
2019-02-24T13:57:02.701Z,2.67
2019-02-24T13:59:32.524Z,3.13
2019-02-24T14:02:02.452Z,3.10
2019-02-24T14:04:32.354Z,3.27
2019-02-24T14:07:02.131Z,2.65
2019-02-24T14:09:31.935Z,3.43
2019-02-24T14:12:01.768Z,2.40
2019-02-24T14:14:31.574Z,3.47
2019-02-24T14:17:01.353Z,6.17
2019-02-24T14:19:31.119Z,2.20
2019-02-24T14:22:00.957Z,2.27
2019-02-24T14:24:30.831Z,2.17
2019-02-24T14:27:00.588Z,2.33
2019-02-24T14:29:30.626Z,2.90
2019-02-24T14:32:00.462Z,2.00
2019-02-24T14:34:30.213Z,4.30
2019-02-24T14:37:00.019Z,2.47
2019-02-24T14:39:30.795Z,2.87
2019-02-24T14:42:00.795Z,3.57
2019-02-24T14:44:31.979Z,2.00
2019-02-24T14:47:01.869Z,2.00
2019-02-24T14:49:31.789Z,1.80
2019-02-24T14:52:01.568Z,2.20
2019-02-24T14:54:31.482Z,1.70
2019-02-24T14:57:01.395Z,2.00
2019-02-24T14:59:34.774Z,2.90
2019-02-24T15:02:04.689Z,2.87
2019-02-24T15:04:34.762Z,2.70
2019-02-24T15:07:08.198Z,1.60
2019-02-24T15:09:38.326Z,1.67
2019-02-24T15:12:12.594Z,2.58
2019-02-24T15:14:42.561Z,2.13
2019-02-24T15:17:12.746Z,3.30
2019-02-24T15:19:42.632Z,2.63
2019-02-24T15:22:12.575Z,1.77
2019-02-24T15:24:43.556Z,2.63
2019-02-24T15:27:14.271Z,1.90
2019-02-24T15:29:44.264Z,1.87
2019-02-24T15:32:14.149Z,2.00
2019-02-24T15:34:45.490Z,2.40
2019-02-24T15:37:16.835Z,3.50
2019-02-24T15:39:46.690Z,2.20
2019-02-24T15:42:16.710Z,1.97
2019-02-24T15:44:46.521Z,2.53
2019-02-24T15:47:16.313Z,1.77
2019-02-24T15:49:46.216Z,3.90
2019-02-24T15:52:16.238Z,1.83
2019-02-24T15:54:46.147Z,2.02
2019-02-24T15:57:18.535Z,1.60
2019-02-24T15:59:49.412Z,2.72
2019-02-24T16:02:19.231Z,2.30
2019-02-24T16:04:49.396Z,2.20
2019-02-24T16:07:19.223Z,2.50
2019-02-24T16:09:49.166Z,2.67
2019-02-24T16:12:18.987Z,3.30
2019-02-24T16:14:48.752Z,4.97
2019-02-24T16:17:18.734Z,4.33
2019-02-24T16:19:49.561Z,3.73
2019-02-24T16:22:19.397Z,5.00
2019-02-24T16:24:49.308Z,5.63
2019-02-24T16:27:19.178Z,4.57
2019-02-24T16:29:49.068Z,3.73
2019-02-24T16:32:19.065Z,6.30
2019-02-24T16:34:49.279Z,5.43
2019-02-24T16:37:19.390Z,4.45
2019-02-24T16:39:49.308Z,7.13
2019-02-24T16:42:20.172Z,5.87
2019-02-24T16:44:51.038Z,6.23
2019-02-24T16:47:22.011Z,6.50
2019-02-24T16:49:52.973Z,5.00
2019-02-24T16:52:25.702Z,4.73
2019-02-24T16:54:55.670Z,6.03
2019-02-24T16:57:25.579Z,6.17
2019-02-24T16:59:55.395Z,6.70
2019-02-24T17:02:25.456Z,6.13
2019-02-24T17:04:59.550Z,6.70
2019-02-24T17:07:29.848Z,7.70
2019-02-24T17:09:59.628Z,7.30
2019-02-24T17:12:29.503Z,6.67
2019-02-24T17:14:59.922Z,8.15
2019-02-24T17:17:29.947Z,8.87
2019-02-24T17:20:00.252Z,8.03
2019-02-24T17:22:30.354Z,11.20
2019-02-24T17:25:01.382Z,7.63
2019-02-24T17:27:31.659Z,7.00
2019-02-24T17:30:01.757Z,8.77
2019-02-24T17:32:31.757Z,8.30
2019-02-24T17:35:02.990Z,9.67
2019-02-24T17:37:36.247Z,10.63
2019-02-24T17:40:07.415Z,11.03
2019-02-24T17:42:37.350Z,11.17
2019-02-24T17:45:09.389Z,8.90
2019-02-24T17:47:42.006Z,8.23
2019-02-24T17:50:12.265Z,7.83
2019-02-24T17:52:42.211Z,10.35
2019-02-24T17:55:12.817Z,8.50
2019-02-24T17:57:42.862Z,6.95
2019-02-24T18:00:16.048Z,7.73
2019-02-24T18:02:45.952Z,7.42
2019-02-24T18:05:15.984Z,7.10
2019-02-24T18:07:46.158Z,7.60
2019-02-24T18:10:16.425Z,6.50
2019-02-24T18:12:46.140Z,11.63
2019-02-24T18:15:16.369Z,10.70
2019-02-24T18:17:46.347Z,13.67
2019-02-24T18:20:16.525Z,18.03
2019-02-24T18:22:46.568Z,22.83
2019-02-24T18:25:16.558Z,13.50
2019-02-24T18:27:46.360Z,10.30
2019-02-24T18:30:19.158Z,9.07
2019-02-24T18:32:49.044Z,14.90
2019-02-24T18:35:19.910Z,10.70
2019-02-24T18:37:49.913Z,13.07
2019-02-24T18:40:20.741Z,17.03
2019-02-24T18:42:59.438Z,14.53
2019-02-24T18:45:22.545Z,13.10
2019-02-24T18:47:52.627Z,12.60
2019-02-24T18:50:22.584Z,11.78
2019-02-24T18:52:52.462Z,12.47
2019-02-24T18:55:22.472Z,16.00
2019-02-24T18:57:52.207Z,12.23
2019-02-24T19:00:23.216Z,11.60
2019-02-24T19:02:54.907Z,13.93
2019-02-24T19:05:26.096Z,11.77
2019-02-24T19:07:56.022Z,10.93
2019-02-24T19:10:26.850Z,14.13
2019-02-24T19:12:56.635Z,15.33
2019-02-24T19:15:26.480Z,25.23
2019-02-24T19:17:56.897Z,18.30
2019-02-24T19:20:29.866Z,19.97
2019-02-24T19:22:59.798Z,15.10
2019-02-24T19:25:29.815Z,13.13
2019-02-24T19:27:59.906Z,16.32
2019-02-24T19:30:30.183Z,12.80
2019-02-24T19:33:00.434Z,13.13
2019-02-24T19:35:30.538Z,14.43
2019-02-24T19:38:00.530Z,14.23
2019-02-24T19:40:30.473Z,13.93
2019-02-24T19:43:01.143Z,15.38
2019-02-24T19:45:31.127Z,12.30
2019-02-24T19:48:01.161Z,14.47
2019-02-24T19:50:31.026Z,11.80
2019-02-24T19:53:00.828Z,14.97
2019-02-24T19:55:30.825Z,13.50
2019-02-24T19:58:00.931Z,15.63
2019-02-24T20:00:30.772Z,12.70
2019-02-24T20:03:00.701Z,14.37
2019-02-24T20:05:31.631Z,12.80
2019-02-24T20:08:01.721Z,15.77
2019-02-24T20:10:32.848Z,12.70
2019-02-24T20:13:02.740Z,13.93
2019-02-24T20:15:32.602Z,15.00
2019-02-24T20:18:02.499Z,14.40
2019-02-24T20:20:32.619Z,13.87
2019-02-24T20:23:02.538Z,15.80
2019-02-24T20:25:32.390Z,18.50
2019-02-24T20:28:02.737Z,20.73
2019-02-24T20:30:32.651Z,12.60
2019-02-24T20:33:02.465Z,13.13
2019-02-24T20:35:33.419Z,16.10
2019-02-24T20:38:03.370Z,15.10
2019-02-24T20:40:33.223Z,16.30
2019-02-24T20:43:03.105Z,17.05
2019-02-24T20:45:35.409Z,18.27
2019-02-24T20:48:05.745Z,24.23
2019-02-24T20:50:35.607Z,15.77
2019-02-24T20:53:06.532Z,17.70
2019-02-24T20:55:37.673Z,16.37
2019-02-24T20:58:08.021Z,18.43
2019-02-24T21:00:39.807Z,19.75
2019-02-24T21:03:12.359Z,18.43
2019-02-24T21:05:42.358Z,13.87
2019-02-24T21:08:12.392Z,18.40
2019-02-24T21:10:42.476Z,25.73
2019-02-24T21:13:16.816Z,21.13
2019-02-24T21:15:47.078Z,19.37
2019-02-24T21:18:17.177Z,21.67
2019-02-24T21:20:47.157Z,20.60
2019-02-24T21:23:17.101Z,18.57
2019-02-24T21:25:47.046Z,16.48
2019-02-24T21:28:17.297Z,14.63
2019-02-24T21:30:47.691Z,13.15
2019-02-24T21:33:17.656Z,10.73
2019-02-24T21:35:47.889Z,12.97
2019-02-24T21:38:17.857Z,13.50
2019-02-24T21:40:52.987Z,15.87
2019-02-24T21:43:23.849Z,18.17
2019-02-24T21:45:53.766Z,14.03
2019-02-24T21:48:23.816Z,17.73
2019-02-24T21:50:53.741Z,17.53
2019-02-24T21:53:23.601Z,19.70
2019-02-24T21:55:53.733Z,24.87
2019-02-24T21:58:23.894Z,15.90
2019-02-24T22:00:53.928Z,14.33
2019-02-24T22:03:23.817Z,17.20
2019-02-24T22:05:53.713Z,16.23
2019-02-24T22:08:23.674Z,15.57
2019-02-24T22:10:53.595Z,15.80
2019-02-24T22:13:23.597Z,17.83
2019-02-24T22:15:55.855Z,18.13
2019-02-24T22:18:32.142Z,14.63
2019-02-24T22:21:03.771Z,13.40
2019-02-24T22:23:35.618Z,15.27
2019-02-24T22:26:05.625Z,17.77
2019-02-24T22:28:38.542Z,14.68
2019-02-24T22:31:12.333Z,13.53
2019-02-24T22:33:42.311Z,14.75
2019-02-24T22:36:12.392Z,14.07
2019-02-24T22:38:42.358Z,13.50
2019-02-24T22:41:12.163Z,13.70
2019-02-24T22:43:42.139Z,16.20
2019-02-24T22:46:12.054Z,12.80
2019-02-24T22:48:41.832Z,14.50
2019-02-24T22:51:11.712Z,15.03
2019-02-24T22:53:41.557Z,13.87
2019-02-24T22:56:11.439Z,12.67
2019-02-24T22:58:41.315Z,15.03
2019-02-24T23:01:19.687Z,19.85
2019-02-24T23:03:50.249Z,17.87
2019-02-24T23:06:20.700Z,22.50
2019-02-24T23:08:50.840Z,16.37
2019-02-24T23:11:23.925Z,19.00
2019-02-24T23:13:53.961Z,14.37
2019-02-24T23:16:24.038Z,14.73
2019-02-24T23:18:54.719Z,18.03
2019-02-24T23:21:25.179Z,17.35
2019-02-24T23:23:57.579Z,16.13
2019-02-24T23:26:27.578Z,18.48
2019-02-24T23:28:58.631Z,15.93
2019-02-24T23:31:28.757Z,16.00
2019-02-24T23:33:59.695Z,23.37
2019-02-24T23:36:29.759Z,16.93
2019-02-24T23:38:59.561Z,16.23
2019-02-24T23:41:29.499Z,16.67
2019-02-24T23:43:59.340Z,12.73
2019-02-24T23:46:29.271Z,13.87
2019-02-24T23:48:59.187Z,15.78
2019-02-24T23:51:28.974Z,12.33
2019-02-24T23:53:58.813Z,13.17
2019-02-24T23:56:28.498Z,13.70
2019-02-24T23:58:58.340Z,14.07
